Time;durP1;ratioP1;P1;durP2;ratioP2;P2;SDS_P1;SDS_P2;PMS_P1;PMS_P2;Temp;Humidity;BMP_temperature;BMP_pressure;BME280_temperature;BME280_humidity;BME280_pressure;Samples;Min_cycle;Max_cycle;Signal;HPM_P1;HPM_P2
2022/01/19 00:01:21;;;;;;;15.58;9.53;;;;;;;-7.37;100.00;100163.47;1766458;80;21008;-72
2022/01/19 00:03:48;;;;;;;15.90;10.23;;;;;;;-7.41;100.00;100160.75;1768576;80;21137;-74
2022/01/19 00:06:14;;;;;;;15.40;8.65;;;;;;;-7.36;100.00;100157.29;1763141;79;21518;-73
2022/01/19 00:08:41;;;;;;;11.68;7.97;;;;;;;-7.33;100.00;100153.61;1765448;79;20963;-73
2022/01/19 00:11:09;;;;;;;9.23;6.83;;;;;;;-7.33;100.00;100158.34;1764488;80;22213;-71
2022/01/19 00:13:35;;;;;;;15.45;8.73;;;;;;;-7.34;100.00;100171.05;1765931;79;21070;-72
2022/01/19 00:16:03;;;;;;;11.73;7.40;;;;;;;-7.38;100.00;100175.32;1771336;80;21603;-73
2022/01/19 00:18:31;;;;;;;12.45;8.15;;;;;;;-7.47;100.00;100188.64;1766523;79;21127;-73
2022/01/19 00:20:57;;;;;;;9.60;8.13;;;;;;;-7.47;100.00;100189.09;1770788;80;20992;-72
2022/01/19 00:23:24;;;;;;;13.83;10.53;;;;;;;-7.51;100.00;100191.61;1765652;80;21510;-72
2022/01/19 00:25:53;;;;;;;18.17;9.63;;;;;;;-7.51;100.00;100194.22;1762794;80;21048;-71
2022/01/19 00:28:21;;;;;;;12.90;9.43;;;;;;;-7.52;100.00;100197.30;1762133;79;21043;-71
2022/01/19 00:30:48;;;;;;;21.10;13.32;;;;;;;-7.53;100.00;100196.11;1768027;79;21124;-74
2022/01/19 00:33:18;;;;;;;18.62;10.60;;;;;;;-7.46;100.00;100195.50;1770930;80;20933;-72
2022/01/19 00:35:44;;;;;;;21.37;9.68;;;;;;;-7.42;100.00;100196.92;1772183;80;20981;-69
2022/01/19 00:38:11;;;;;;;11.35;8.78;;;;;;;-7.38;100.00;100205.31;1775854;80;21024;-71
2022/01/19 00:40:39;;;;;;;16.23;8.13;;;;;;;-7.38;100.00;100181.84;1775599;80;21052;-71
2022/01/19 00:43:06;;;;;;;7.92;7.20;;;;;;;-7.37;100.00;100202.59;1768022;80;23024;-71
2022/01/19 00:45:33;;;;;;;8.10;6.87;;;;;;;-7.33;100.00;100186.21;1765059;80;21004;-70
2022/01/19 00:48:00;;;;;;;14.65;8.68;;;;;;;-7.34;100.00;100193.22;1770809;80;21521;-70
2022/01/19 00:50:29;;;;;;;9.90;8.78;;;;;;;-7.34;100.00;100195.00;1775718;80;21467;-72
2022/01/19 00:52:56;;;;;;;7.33;6.72;;;;;;;-7.39;100.00;100189.33;1774729;80;21036;-72
2022/01/19 00:55:25;;;;;;;8.53;6.45;;;;;;;-7.44;100.00;100190.17;1775425;80;21119;-71
2022/01/19 00:57:52;;;;;;;8.75;7.30;;;;;;;-7.46;100.00;100205.11;1775593;80;21542;-71
2022/01/19 01:00:25;;;;;;;7.62;6.90;;;;;;;-7.49;100.00;100206.18;1775845;80;20996;-72
2022/01/19 01:02:52;;;;;;;6.90;6.35;;;;;;;-7.51;100.00;100204.64;1774705;80;21564;-70
2022/01/19 01:05:19;;;;;;;8.20;6.50;;;;;;;-7.59;100.00;100204.77;1774031;80;20981;-71
2022/01/19 01:07:45;;;;;;;6.20;5.67;;;;;;;-7.62;100.00;100210.23;1772856;80;21774;-72
2022/01/19 01:10:15;;;;;;;6.87;6.28;;;;;;;-7.65;100.00;100205.24;1772011;80;21000;-71
2022/01/19 01:12:49;;;;;;;6.78;5.78;;;;;;;-7.73;100.00;100199.81;1766449;80;21127;-70
2022/01/19 01:18:19;;;;;;;6.90;6.30;;;;;;;-7.70;100.00;100196.95;1757118;81;21071;-70
2022/01/19 01:20:52;;;;;;;9.60;8.60;;;;;;;-7.70;100.00;100189.14;1776438;80;21111;-71
2022/01/19 01:23:24;;;;;;;9.15;7.67;;;;;;;-7.73;100.00;100188.56;1774667;80;21041;-70
2022/01/19 01:25:53;;;;;;;8.48;7.00;;;;;;;-7.80;100.00;100187.72;1763469;80;21533;-73
2022/01/19 01:28:20;;;;;;;7.85;7.05;;;;;;;-7.86;100.00;100180.41;1760904;80;20967;-72
2022/01/19 01:30:50;;;;;;;6.70;5.90;;;;;;;-7.90;100.00;100175.55;1765518;80;20951;-71
2022/01/19 01:33:18;;;;;;;8.53;6.60;;;;;;;-7.97;100.00;100177.80;1760105;80;21485;-72
2022/01/19 01:35:45;;;;;;;7.28;6.58;;;;;;;-8.01;100.00;100168.55;1742147;80;21058;-71
2022/01/19 01:38:11;;;;;;;7.25;6.53;;;;;;;-8.04;100.00;100176.13;1765444;80;21430;-71
2022/01/19 01:40:38;;;;;;;12.75;7.12;;;;;;;-8.07;100.00;100176.37;1782026;80;21023;-72
2022/01/19 01:43:08;;;;;;;9.93;8.50;;;;;;;-8.10;100.00;100175.31;1786061;80;21059;-71
2022/01/19 01:45:39;;;;;;;9.70;7.78;;;;;;;-8.12;100.00;100174.60;1786230;80;21142;-72
2022/01/19 01:48:21;;;;;;;10.40;8.65;;;;;;;-8.12;100.00;100177.69;1753471;81;20976;-70
2022/01/19 01:53:34;;;;;;;11.48;8.60;;;;;;;-8.19;100.00;100176.02;1773007;79;21290;-70
2022/01/19 01:56:13;;;;;;;11.40;9.93;;;;;;;-8.26;100.00;100171.75;1761411;80;20963;-70
2022/01/19 01:58:44;;;;;;;10.65;8.23;;;;;;;-8.29;100.00;100169.86;1759072;80;21915;-72
2022/01/19 02:01:22;;;;;;;17.52;10.98;;;;;;;-8.38;100.00;100163.57;1723091;80;20939;-72
2022/01/19 02:03:49;;;;;;;18.80;13.28;;;;;;;-8.39;100.00;100174.16;1775645;79;20876;-71
2022/01/19 02:09:13;;;;;;;9.08;7.60;;;;;;;-8.44;100.00;100182.31;1826084;77;20833;-71
2022/01/19 02:23:20;;;;;;;83.80;51.13;;;;;;;-8.53;100.00;100181.22;1828286;77;20979;-70
2022/01/19 02:25:44;;;;;;;42.58;34.90;;;;;;;-8.54;100.00;100166.56;1828094;77;21270;-72
2022/01/19 02:41:45;;;;;;;307.07;109.50;;;;;;;-8.67;100.00;100161.45;1805132;77;20947;-72
2022/01/19 02:44:27;;;;;;;283.23;97.15;;;;;;;-8.70;100.00;100142.63;1822176;78;20907;-70
2022/01/19 02:49:26;;;;;;;129.47;49.30;;;;;;;-8.76;100.00;100153.03;1827773;77;20155;-72
2022/01/19 02:51:54;;;;;;;97.67;40.65;;;;;;;-8.83;100.00;100151.00;1830740;77;21486;-73
2022/01/19 02:54:24;;;;;;;74.45;33.20;;;;;;;-8.91;100.00;100148.98;1827535;77;21504;-72
2022/01/19 02:56:53;;;;;;;75.32;30.88;;;;;;;-8.94;100.00;100150.04;1826421;76;21022;-72
2022/01/19 02:59:28;;;;;;;58.05;24.32;;;;;;;-8.93;100.00;100146.95;1831810;77;20921;-71
2022/01/19 03:09:48;;;;;;;79.57;35.90;;;;;;;-8.92;100.00;100142.92;1826202;78;20995;-72
2022/01/19 03:12:15;;;;;;;60.15;28.80;;;;;;;-8.92;100.00;100144.70;1826973;78;21003;-72
2022/01/19 03:14:41;;;;;;;31.10;18.27;;;;;;;-8.97;100.00;100146.34;1823736;77;20974;-71
2022/01/19 03:17:11;;;;;;;21.87;15.15;;;;;;;-9.00;100.00;100145.75;1824761;77;21116;-71
2022/01/19 03:19:37;;;;;;;30.48;19.85;;;;;;;-9.01;100.00;100145.37;1827454;76;21026;-71
2022/01/19 03:22:04;;;;;;;18.30;14.58;;;;;;;-9.00;100.00;100149.18;1828812;77;20974;-72
2022/01/19 03:24:38;;;;;;;24.70;15.10;;;;;;;-8.98;100.00;100157.70;1828176;78;20948;-72
2022/01/19 03:27:01;;;;;;;32.73;20.90;;;;;;;-8.92;100.00;100142.92;1832147;77;21501;-71
2022/01/19 03:29:38;;;;;;;23.87;14.95;;;;;;;-8.84;100.00;100142.37;1831254;77;21091;-73
2022/01/19 03:32:06;;;;;;;27.62;16.82;;;;;;;-8.83;100.00;100128.89;1831151;77;20864;-71
2022/01/19 03:34:32;;;;;;;16.37;11.45;;;;;;;-8.79;100.00;100132.90;1824717;77;20940;-72
2022/01/19 03:37:03;;;;;;;;;;;;;;;-8.75;100.00;100125.23;1834018;77;21023;-71
2022/01/19 03:39:31;;;;;;;17.98;12.58;;;;;;;-8.75;100.00;100131.73;1824137;78;20183;-72
2022/01/19 03:41:58;;;;;;;11.00;9.65;;;;;;;-8.70;100.00;100136.12;1830268;78;21213;-71
2022/01/19 03:44:26;;;;;;;18.67;12.07;;;;;;;-8.72;100.00;100128.89;1831519;77;20896;-71
2022/01/19 03:46:56;;;;;;;14.37;10.90;;;;;;;-8.67;100.00;100135.42;1829960;77;20983;-72
2022/01/19 03:49:24;;;;;;;25.62;16.10;;;;;;;-8.69;100.00;100137.80;1819616;77;21261;-69
2022/01/19 03:51:58;;;;;;;53.05;27.02;;;;;;;-8.73;100.00;100140.26;1825982;78;20962;-70
2022/01/19 03:54:32;;;;;;;40.80;20.48;;;;;;;-8.76;100.00;100136.12;1821889;78;21800;-72
2022/01/19 03:56:59;;;;;;;10.80;8.88;;;;;;;-8.74;100.00;100142.52;1826168;78;20996;-70
2022/01/19 03:59:26;;;;;;;17.48;12.18;;;;;;;-8.77;100.00;100139.67;1831829;77;20965;-71
2022/01/19 04:01:54;;;;;;;16.62;12.68;;;;;;;-8.79;100.00;100140.70;1831899;78;21027;-71
2022/01/19 04:04:37;;;;;;;28.35;15.50;;;;;;;-8.78;100.00;100135.39;1827365;78;21011;-71
2022/01/19 04:07:07;;;;;;;63.25;30.23;;;;;;;-8.74;100.00;100139.91;1825119;77;21162;-70
2022/01/19 04:09:30;;;;;;;39.40;23.42;;;;;;;-8.73;100.00;100140.26;1824260;77;20954;-71
2022/01/19 04:11:56;;;;;;;;;;;;;;;-8.70;100.00;100146.53;1828585;77;21042;-72
2022/01/19 04:14:26;;;;;;;15.63;14.03;;;;;;;-8.64;100.00;100139.09;1830779;77;20138;-70
2022/01/19 04:17:02;;;;;;;7.15;6.45;;;;;;;-8.57;100.00;100140.77;1821619;77;22308;-70
2022/01/19 04:19:36;;;;;;;9.23;7.92;;;;;;;-8.50;100.00;100151.52;1804310;78;21054;-71
2022/01/19 04:22:05;;;;;;;11.38;9.38;;;;;;;-8.48;100.00;100153.06;1789245;79;20911;-71
2022/01/19 04:24:34;;;;;;;7.75;7.15;;;;;;;-8.42;100.00;100148.70;1788126;80;21530;-72
2022/01/19 04:29:57;;;;;;;16.15;8.08;;;;;;;-8.33;100.00;100147.12;1772268;79;21152;-71
2022/01/19 04:32:35;;;;;;;31.55;24.67;;;;;;;-8.30;100.00;100144.78;1775055;79;21286;-71
2022/01/19 04:34:56;;;;;;;281.85;110.95;;;;;;;-8.27;100.00;100148.45;1776431;80;20987;-70
2022/01/19 04:37:37;;;;;;;314.10;118.10;;;;;;;-8.28;100.00;100133.75;1771071;80;20912;-71
2022/01/19 05:04:31;;;;;;;27.75;17.87;;;;;;;-7.72;100.00;100117.22;1771995;79;21502;-73
2022/01/19 05:07:12;;;;;;;30.45;19.77;;;;;;;-7.69;100.00;100119.13;1775328;79;21060;-73
2022/01/19 05:14:49;;;;;;;84.97;41.18;;;;;;;-7.56;100.00;100118.48;1774211;80;20962;-73
2022/01/19 05:17:16;;;;;;;58.55;35.17;;;;;;;-7.56;100.00;100123.70;1794585;78;20982;-71
2022/01/19 05:19:44;;;;;;;73.22;45.45;;;;;;;-7.58;100.00;100128.20;1794979;78;20998;-71
2022/01/19 05:22:13;;;;;;;57.40;37.15;;;;;;;-7.58;100.00;100132.11;1795398;78;21019;-71
2022/01/19 05:24:46;;;;;;;21.85;14.85;;;;;;;-7.56;100.00;100132.83;1764719;80;21162;-72
2022/01/19 05:27:27;;;;;;;41.33;29.20;;;;;;;-7.56;100.00;100126.30;1690177;84;21019;-71
2022/01/19 05:29:54;;;;;;;38.33;26.02;;;;;;;-7.55;100.00;100134.47;1690924;84;20936;-73
2022/01/19 05:32:20;;;;;;;26.02;19.90;;;;;;;-7.52;100.00;100129.96;1689058;84;20956;-72
2022/01/19 05:34:47;;;;;;;20.10;16.37;;;;;;;-7.52;100.00;100133.42;1679529;84;21093;-72
2022/01/19 05:37:36;;;;;;;41.10;32.83;;;;;;;-7.49;100.00;100129.73;1688361;84;21051;-72
2022/01/19 05:40:18;;;;;;;23.40;20.92;;;;;;;-7.47;100.00;100128.66;1688502;84;20956;-71
2022/01/19 05:42:49;;;;;;;15.15;12.05;;;;;;;-7.48;100.00;100139.20;1689058;84;21573;-72
2022/01/19 05:45:17;;;;;;;;;;;;;;;-7.50;100.00;100147.62;1680299;84;20939;-71
2022/01/19 05:47:45;;;;;;;11.08;8.33;;;;;;;-7.51;100.00;100140.28;1708887;82;20252;-72
2022/01/19 05:50:13;;;;;;;11.93;9.70;;;;;;;-7.50;100.00;100139.31;1690932;84;21569;-71
2022/01/19 05:52:41;;;;;;;14.78;9.60;;;;;;;-7.49;100.00;100143.59;1662476;85;21110;-70
2022/01/19 05:55:09;;;;;;;17.57;14.43;;;;;;;-7.49;100.00;100144.91;1683628;84;21561;-74
2022/01/19 05:57:37;;;;;;;19.87;13.75;;;;;;;-7.48;100.00;100147.84;1703184;83;21648;-73
2022/01/19 06:00:09;;;;;;;21.35;15.95;;;;;;;-7.49;100.00;100139.69;1679063;84;21036;-71
2022/01/19 06:02:38;;;;;;;18.10;15.28;;;;;;;-7.49;100.00;100145.38;1687879;80;21768;-69
2022/01/19 06:05:09;;;;;;;15.90;11.83;;;;;;;-7.47;100.00;100143.45;1769966;80;20987;-70
2022/01/19 06:07:49;;;;;;;14.40;10.05;;;;;;;-7.50;100.00;100136.70;1788162;80;20981;-71
2022/01/19 06:10:45;;;;;;;18.48;10.20;;;;;;;-7.49;100.00;100134.95;1790481;80;21477;-70
2022/01/19 06:13:17;;;;;;;42.33;20.62;;;;;;;-7.49;100.00;100138.38;1793297;78;21042;-70
2022/01/19 06:15:45;;;;;;;24.90;14.00;;;;;;;-7.47;100.00;100141.70;1792533;78;21779;-69
2022/01/19 06:18:12;;;;;;;15.98;9.98;;;;;;;-7.46;100.00;100130.30;1788173;80;20924;-72
2022/01/19 06:20:41;;;;;;;15.70;10.05;;;;;;;-7.45;100.00;100130.64;1788232;78;20952;-71
2022/01/19 06:23:08;;;;;;;;;;;;;;;-7.43;100.00;100135.27;1790558;79;21016;-70
2022/01/19 06:25:36;;;;;;;;;;;;;;;-7.41;100.00;100119.02;1759664;80;20209;-73
2022/01/19 06:28:04;;;;;;;42.08;32.28;;;;;;;-7.35;100.00;100134.19;1765986;79;21821;-71
2022/01/19 06:30:31;;;;;;;17.65;15.08;;;;;;;-7.30;100.00;100144.22;1765958;80;21023;-72
2022/01/19 06:32:58;;;;;;;113.80;83.27;;;;;;;-7.23;100.00;100140.16;1758776;80;20972;-75
2022/01/19 06:35:25;;;;;;;428.82;283.07;;;;;;;-7.14;100.00;100144.64;1773392;80;21438;-72
2022/01/19 06:38:09;;;;;;;275.52;132.87;;;;;;;-6.96;100.00;100141.47;1785485;78;21097;-71
2022/01/19 06:40:41;;;;;;;91.55;42.08;;;;;;;-6.79;100.00;100141.38;1774008;80;21100;-70
2022/01/19 06:43:08;;;;;;;235.90;125.33;;;;;;;-6.76;100.00;100152.87;1738661;79;21026;-70
2022/01/19 06:45:37;;;;;;;83.42;47.98;;;;;;;-6.76;100.00;100148.95;1772570;79;21493;-73
2022/01/19 06:48:05;;;;;;;27.62;18.37;;;;;;;-6.75;100.00;100146.22;1771218;79;21054;-73
2022/01/19 06:50:33;;;;;;;;;;;;;;;-6.72;100.00;100140.73;1775077;79;20937;-72
2022/01/19 06:53:01;;;;;;;15.70;11.43;;;;;;;-6.67;100.00;100140.36;1771953;79;21129;-72
2022/01/19 06:55:32;;;;;;;139.80;60.28;;;;;;;-6.64;100.00;100138.78;1774126;78;21498;-74
2022/01/19 06:58:03;;;;;;;46.42;24.67;;;;;;;-6.59;100.00;100141.87;1770008;79;21564;-73
2022/01/19 07:00:32;;;;;;;22.17;13.55;;;;;;;-6.51;100.00;100145.14;1788763;78;20955;-72
2022/01/19 07:03:08;;;;;;;48.92;30.43;;;;;;;-6.45;100.00;100151.13;1777057;80;20913;-72
2022/01/19 07:05:39;;;;;;;14.63;9.88;;;;;;;-6.39;100.00;100136.27;1772377;79;21640;-74
2022/01/19 07:08:08;;;;;;;15.78;10.72;;;;;;;-6.35;100.00;100131.11;1768870;79;21734;-74
2022/01/19 07:10:36;;;;;;;10.25;8.10;;;;;;;-6.27;100.00;100135.22;1769333;79;20976;-73
2022/01/19 07:13:03;;;;;;;14.25;8.18;;;;;;;-6.21;100.00;100131.73;1776469;80;21060;-73
2022/01/19 07:15:32;;;;;;;17.12;12.00;;;;;;;-6.19;100.00;100130.64;1770400;79;21034;-73
2022/01/19 07:18:00;;;;;;;17.20;14.75;;;;;;;-6.12;100.00;100128.33;1793398;79;21581;-71
2022/01/19 07:20:27;;;;;;;15.87;11.40;;;;;;;-6.05;100.00;100130.73;1793454;79;20915;-74
2022/01/19 07:22:56;;;;;;;10.68;7.67;;;;;;;-6.05;100.00;100127.67;1796876;79;21044;-73
2022/01/19 07:25:23;;;;;;;13.78;9.43;;;;;;;-6.07;100.00;100123.05;1797067;78;20924;-73
2022/01/19 07:27:52;;;;;;;18.75;9.70;;;;;;;-6.07;100.00;100121.73;1797003;78;20979;-73
2022/01/19 07:30:19;;;;;;;33.80;14.70;;;;;;;-6.04;100.00;100118.03;1765263;80;21119;-72
2022/01/19 07:32:48;;;;;;;38.30;17.23;;;;;;;-5.99;100.00;100119.77;1765556;80;21070;-71
2022/01/19 07:35:16;;;;;;;45.98;23.30;;;;;;;-5.94;100.00;100123.30;1779764;79;21016;-71
2022/01/19 07:37:43;;;;;;;86.37;40.10;;;;;;;-5.85;100.00;100123.28;1769769;80;20916;-71
2022/01/19 07:40:14;;;;;;;16.23;10.55;;;;;;;-5.77;100.00;100133.55;1794880;79;21086;-74
2022/01/19 07:42:44;;;;;;;14.90;10.50;;;;;;;-5.72;100.00;100133.98;1796905;79;20971;-73
2022/01/19 07:45:26;;;;;;;15.08;9.03;;;;;;;-5.69;100.00;100125.37;1662190;83;21140;-72
2022/01/19 07:48:11;;;;;;;17.32;11.57;;;;;;;-5.61;100.00;100129.47;1669998;85;21015;-74
2022/01/19 07:50:47;;;;;;;22.22;14.18;;;;;;;-5.57;100.00;100128.70;1662125;83;21030;-73
2022/01/19 07:53:18;;;;;;;19.25;11.15;;;;;;;-5.51;100.00;100129.94;1667225;85;21112;-72
2022/01/19 07:55:50;;;;;;;19.85;8.35;;;;;;;-5.45;100.00;100119.77;1624063;86;21146;-72
2022/01/19 07:58:34;;;;;;;17.35;8.33;;;;;;;-5.39;100.00;100118.37;1664685;83;21074;-72
2022/01/19 08:01:13;;;;;;;12.63;7.90;;;;;;;-5.36;100.00;100109.42;1711509;83;20932;-73
2022/01/19 08:03:47;;;;;;;11.85;8.15;;;;;;;-5.34;100.00;100097.04;1690397;82;20983;-74
2022/01/19 08:06:17;;;;;;;19.62;8.50;;;;;;;-5.36;100.00;100093.73;1681723;83;21177;-73
2022/01/19 08:08:44;;;;;;;13.05;8.53;;;;;;;-5.33;100.00;100089.55;1689753;83;21118;-75
2022/01/19 08:11:12;;;;;;;37.88;25.02;;;;;;;-5.32;100.00;100094.63;1685559;83;21070;-72
2022/01/19 08:13:41;;;;;;;102.58;91.53;;;;;;;-5.30;100.00;100096.62;1660383;85;20974;-76
2022/01/19 08:16:08;;;;;;;564.92;364.60;;;;;;;-5.27;100.00;100095.03;1661646;83;21117;-73
2022/01/19 08:18:36;;;;;;;742.92;601.25;;;;;;;-5.21;100.00;100107.58;1665836;83;21102;-74
2022/01/19 08:21:05;;;;;;;75.52;47.88;;;;;;;-5.15;100.00;100111.92;1705932;82;21139;-73
2022/01/19 08:23:34;;;;;;;137.88;88.50;;;;;;;-5.11;100.00;100115.43;1734090;82;20956;-72
2022/01/19 08:26:01;;;;;;;62.90;33.60;;;;;;;-5.09;100.00;100103.52;1734089;82;20991;-73
2022/01/19 08:28:30;;;;;;;33.53;20.52;;;;;;;-5.06;100.00;100116.33;1728255;82;20913;-72
2022/01/19 08:30:57;;;;;;;15.50;11.08;;;;;;;-5.04;100.00;100109.98;1736080;82;21075;-73
2022/01/19 08:33:42;;;;;;;14.18;11.40;;;;;;;-5.01;100.00;100098.41;1737278;81;21941;-73
2022/01/19 08:36:10;;;;;;;;;;;;;;;-4.88;100.00;100093.69;1742477;79;20946;-74
2022/01/19 08:38:41;;;;;;;8.78;6.75;;;;;;;-4.85;100.00;100093.43;1729946;81;20151;-73
2022/01/19 08:41:10;;;;;;;9.50;8.50;;;;;;;-4.80;100.00;100085.13;1706745;82;21004;-72
2022/01/19 08:43:38;;;;;;;10.78;7.95;;;;;;;-4.75;100.00;100079.00;1737946;82;20984;-71
2022/01/19 08:46:06;;;;;;;12.43;7.37;;;;;;;-4.72;100.00;100061.69;1734898;82;21593;-69
2022/01/19 08:48:38;;;;;;;22.58;9.85;;;;;;;-4.62;100.00;100060.34;1704903;82;20975;-74
2022/01/19 08:51:12;;;;;;;13.18;8.90;;;;;;;-4.59;100.00;100059.56;1734727;81;20999;-73
2022/01/19 08:53:45;;;;;;;10.25;7.72;;;;;;;-4.53;100.00;100059.00;1736741;82;21056;-72
2022/01/19 08:56:22;;;;;;;13.83;7.33;;;;;;;-4.49;100.00;100052.16;1697457;82;21050;-73
2022/01/19 08:58:49;;;;;;;11.83;7.80;;;;;;;-4.46;100.00;100049.23;1717255;82;21442;-73
2022/01/19 09:01:16;;;;;;;16.32;9.28;;;;;;;-4.42;100.00;100059.30;1744637;82;21122;-73
2022/01/19 09:03:44;;;;;;;13.98;9.65;;;;;;;-4.33;100.00;100053.68;1708330;84;21058;-72
2022/01/19 09:06:10;;;;;;;27.17;11.00;;;;;;;-4.29;100.00;100045.84;1731423;82;20992;-71
2022/01/19 09:08:37;;;;;;;19.52;8.93;;;;;;;-4.29;100.00;100036.67;1710617;83;21069;-72
2022/01/19 09:11:06;;;;;;;15.13;10.28;;;;;;;-4.28;100.00;100034.41;1710962;83;21117;-70
2022/01/19 09:13:34;;;;;;;25.20;12.23;;;;;;;-4.25;100.00;100034.59;1731968;82;21493;-72
2022/01/19 09:16:00;;;;;;;24.10;11.28;;;;;;;-4.20;100.00;100034.98;1710762;83;21049;-73
2022/01/19 09:18:27;;;;;;;15.98;9.03;;;;;;;-4.16;100.00;100031.11;1760891;80;20901;-74
2022/01/19 09:20:54;;;;;;;17.30;10.75;;;;;;;-4.13;100.00;100028.19;1766165;80;20999;-75
2022/01/19 09:23:24;;;;;;;27.93;16.80;;;;;;;-4.08;100.00;100013.33;1762059;81;21141;-73
2022/01/19 09:25:51;;;;;;;162.15;144.82;;;;;;;-4.01;100.00;100014.38;1772916;80;21407;-75
2022/01/19 09:28:19;;;;;;;28.02;20.00;;;;;;;-3.95;100.00;100014.59;1759424;80;20945;-75
2022/01/19 09:30:45;;;;;;;64.87;49.27;;;;;;;-3.86;100.00;100002.89;1763080;80;20945;-75
2022/01/19 09:33:24;;;;;;;20.35;9.85;;;;;;;-3.75;100.00;100000.03;1747727;81;21049;-71
2022/01/19 09:36:03;;;;;;;136.52;77.55;;;;;;;-3.67;100.00;99994.37;1777814;80;21147;-73
2022/01/19 09:38:22;;;;;;;93.92;50.58;;;;;;;-3.52;100.00;99997.29;1748696;80;21036;-74
2022/01/19 09:40:49;;;;;;;131.45;70.85;;;;;;;-3.52;100.00;100003.84;1762511;80;20881;-75
2022/01/19 09:43:23;;;;;;;56.55;27.87;;;;;;;-3.43;100.00;99998.66;1770541;81;21071;-74
2022/01/19 09:45:57;;;;;;;47.85;28.70;;;;;;;-3.35;100.00;100000.05;1776530;80;20877;-71
2022/01/19 09:48:26;;;;;;;41.20;27.67;;;;;;;-3.22;100.00;99991.27;1775046;80;21584;-75
2022/01/19 09:50:54;;;;;;;37.17;24.32;;;;;;;-3.19;100.00;99990.14;1772832;81;21509;-72
2022/01/19 09:53:21;;;;;;;22.42;13.62;;;;;;;-3.11;100.00;99979.21;1772553;81;21523;-73
2022/01/19 09:55:48;;;;;;;20.70;12.98;;;;;;;-3.14;100.00;99995.75;1780029;79;21589;-73
2022/01/19 09:58:17;;;;;;;27.35;11.45;;;;;;;-3.06;100.00;99988.76;1761745;79;20937;-73
2022/01/19 10:00:44;;;;;;;27.02;12.28;;;;;;;-3.05;100.00;99988.27;1773955;80;21138;-71
2022/01/19 10:03:19;;;;;;;28.80;15.15;;;;;;;-3.03;100.00;99995.01;1786783;80;20975;-74
2022/01/19 10:06:02;;;;;;;27.35;17.32;;;;;;;-2.92;100.00;99993.91;1758257;80;21430;-72
2022/01/19 10:08:46;;;;;;;33.18;15.35;;;;;;;-2.94;100.00;99991.95;1779241;79;21083;-72
2022/01/19 10:16:58;;;;;;;43.55;17.02;;;;;;;-2.89;100.00;100003.28;1784153;80;21521;-73
2022/01/19 10:17:02;;;;;;;32.40;16.80;;;;;;;-2.86;100.00;100002.50;1788870;78;20955;-72
2022/01/19 10:19:42;;;;;;;42.65;24.20;;;;;;;-2.87;100.00;100000.83;1788268;80;21477;-71
2022/01/19 10:22:25;;;;;;;26.57;13.70;;;;;;;-2.84;100.00;100001.04;1774910;80;21475;-75
2022/01/19 10:25:01;;;;;;;23.02;13.32;;;;;;;-2.94;100.00;99991.95;1777798;79;20936;-73
2022/01/19 10:27:40;;;;;;;27.32;11.12;;;;;;;-2.93;100.00;99993.59;1778103;80;22133;-74
2022/01/19 10:30:12;;;;;;;20.23;12.82;;;;;;;-2.98;100.00;99992.41;1772264;80;21479;-74
2022/01/19 10:32:55;;;;;;;38.50;20.30;;;;;;;-3.07;100.00;99978.40;1760508;80;21008;-72
2022/01/19 10:35:36;;;;;;;36.93;27.37;;;;;;;-3.09;100.00;99988.23;1747097;82;21008;-73
2022/01/19 10:38:28;;;;;;;153.18;133.57;;;;;;;-3.09;100.00;99982.48;1756203;78;21727;-73
2022/01/19 10:41:02;;;;;;;37.38;32.55;;;;;;;-3.14;100.00;99980.81;1688945;82;22185;-71
2022/01/19 10:43:41;;;;;;;214.88;81.80;;;;;;;-3.14;100.00;99973.42;1733378;82;21425;-72
2022/01/19 10:46:31;;;;;;;837.95;389.82;;;;;;;-3.12;100.00;99979.36;1733496;82;20989;-73
2022/01/19 10:49:05;;;;;;;426.82;180.05;;;;;;;-3.09;100.00;99975.09;1735780;80;21120;-72
2022/01/19 10:51:37;;;;;;;187.07;75.35;;;;;;;-3.06;100.00;99978.25;1771646;80;20996;-70
2022/01/19 10:54:13;;;;;;;232.10;97.00;;;;;;;-3.04;100.00;99972.36;1769617;81;21974;-71
2022/01/19 10:56:40;;;;;;;664.50;306.95;;;;;;;-3.05;100.00;99973.33;1746288;78;21656;-71
2022/01/19 10:59:13;;;;;;;473.65;194.07;;;;;;;-3.05;100.00;99970.70;1771217;78;21032;-71
2022/01/19 11:01:48;;;;;;;195.20;77.42;;;;;;;-3.07;100.00;99969.20;1773982;80;21107;-72
2022/01/19 11:04:28;;;;;;;376.42;151.70;;;;;;;-3.06;100.00;99969.56;1777893;80;21078;-72
2022/01/19 11:07:03;;;;;;;164.90;62.67;;;;;;;-2.99;100.00;99958.73;1771161;80;21775;-72
2022/01/19 11:09:34;;;;;;;182.40;71.50;;;;;;;-2.96;100.00;99953.66;1746541;82;21055;-73
2022/01/19 11:12:10;;;;;;;31.73;16.95;;;;;;;-2.88;100.00;99964.23;1770414;79;21134;-73
2022/01/19 11:14:37;;;;;;;103.05;46.05;;;;;;;-2.84;100.00;99950.63;1768127;80;21095;-71
2022/01/19 11:17:04;;;;;;;53.78;27.73;;;;;;;-2.74;100.00;99956.23;1770584;79;21155;-72
2022/01/19 11:19:43;;;;;;;61.33;33.78;;;;;;;-2.75;100.00;99942.77;1793235;78;21147;-72
2022/01/19 11:22:34;;;;;;;52.45;30.17;;;;;;;-2.71;100.00;99940.98;1791729;78;21538;-73
2022/01/19 11:25:33;;;;;;;30.30;19.27;;;;;;;-2.66;100.00;99933.45;1796995;78;20966;-74
2022/01/19 11:27:59;;;;;;;25.40;14.18;;;;;;;-2.56;100.00;99934.63;1797897;79;20951;-71
2022/01/19 11:30:33;;;;;;;28.45;14.87;;;;;;;-2.45;100.00;99930.88;1797193;78;21353;-71
2022/01/19 11:33:24;;;;;;;19.37;11.55;;;;;;;-2.33;100.00;99932.72;1766777;78;21165;-72
2022/01/19 11:35:55;;;;;;;25.20;15.35;;;;;;;-2.15;100.00;99901.86;1797671;79;21098;-72
2022/01/19 11:38:45;;;;;;;52.95;29.63;;;;;;;-2.16;100.00;99870.80;1797736;79;20978;-73
2022/01/19 11:41:18;;;;;;;31.10;15.53;;;;;;;-2.35;100.00;99884.73;1783044;78;20935;-72
2022/01/19 11:43:54;;;;;;;21.40;14.05;;;;;;;-2.08;100.00;99895.44;1792702;78;20979;-72
2022/01/19 11:46:31;;;;;;;20.07;12.53;;;;;;;-1.71;100.00;99902.86;1801378;78;21057;-71
2022/01/19 11:49:00;;;;;;;21.45;14.55;;;;;;;-1.81;100.00;99885.11;1813217;78;21035;-70
2022/01/19 11:51:39;;;;;;;27.62;15.15;;;;;;;-1.91;100.00;99877.85;1818678;78;21012;-70
2022/01/19 11:54:12;;;;;;;56.00;26.50;;;;;;;-2.05;100.00;99874.09;1815379;78;21036;-71
2022/01/19 11:57:10;;;;;;;19.82;12.78;;;;;;;-2.03;100.00;99861.10;1823213;78;20968;-71
2022/01/19 11:59:50;;;;;;;;;;;;;;;-1.93;100.00;99853.54;1821951;78;21140;-70
2022/01/19 12:02:35;;;;;;;20.75;13.43;;;;;;;-1.67;100.00;99852.02;1777019;79;20143;-72
2022/01/19 12:05:08;;;;;;;52.65;39.05;;;;;;;-1.47;100.00;99856.41;1762734;80;21045;-71
2022/01/19 12:07:40;;;;;;;44.38;23.07;;;;;;;-1.37;100.00;99861.84;1769904;80;20995;-70
2022/01/19 12:10:19;;;;;;;47.45;25.10;;;;;;;-1.02;100.00;99853.66;1770354;81;21000;-72
2022/01/19 12:13:30;;;;;;;30.62;20.02;;;;;;;-0.78;100.00;99851.41;1771092;81;21567;-69
2022/01/19 12:16:03;;;;;;;458.27;213.85;;;;;;;-0.75;100.00;99854.50;1735772;81;21003;-71
2022/01/19 12:18:56;;;;;;;192.37;79.92;;;;;;;-0.44;100.00;99861.09;1748071;81;20963;-69
2022/01/19 12:21:55;;;;;;;29.30;19.20;;;;;;;-0.27;100.00;99855.20;1727209;81;21802;-69
2022/01/19 12:24:32;;;;;;;23.10;13.65;;;;;;;-0.38;100.00;99852.97;1732753;81;21049;-68
2022/01/19 12:27:07;;;;;;;39.30;21.12;;;;;;;-0.62;100.00;99859.20;1724141;82;21154;-70
2022/01/19 12:29:39;;;;;;;141.37;60.95;;;;;;;-0.66;100.00;99864.52;1737137;82;21004;-70
2022/01/19 12:32:11;;;;;;;79.50;35.05;;;;;;;-0.73;100.00;99868.84;1725153;82;21492;-69
2022/01/19 12:34:53;;;;;;;547.17;254.00;;;;;;;-0.80;100.00;99863.42;1716356;82;21058;-69
2022/01/19 12:37:40;;;;;;;151.07;63.20;;;;;;;-0.92;100.00;99861.66;1725454;82;21065;-70
2022/01/19 12:40:25;;;;;;;64.58;30.10;;;;;;;-1.13;100.00;99848.24;1723330;82;21580;-69
2022/01/19 12:42:59;;;;;;;29.37;17.52;;;;;;;-1.36;100.00;99840.27;1719876;82;20959;-69
2022/01/19 12:45:45;;;;;;;24.47;14.90;;;;;;;-1.56;100.00;99827.98;1721834;82;21143;-69
2022/01/19 12:48:12;;;;;;;21.25;14.13;;;;;;;-1.62;100.00;99829.95;1722828;82;21635;-69